Terminal Aerodrome Forecast
Issued by NWS

Home | Current Version | Previous Version | Text Only | Print | Product List | Glossary On
Versions: 1 2 3 4 5 6 7 8 9 10 11 12 13 14 15 16 17 18 19
238
FTUS43 KICT 271356 AAA
TAFHUT
TAF AMD
KHUT 271356Z 2714/2812 30014G20KT P6SM SCT015
      TEMPO 2714/2716 BKN015
     FM271800 28015G22KT P6SM BKN035
     FM280000 30010KT P6SM SCT100=

USA.gov is the U.S. government's official web portal to all federal, state and local government web resources and services.